Time;durP1;ratioP1;P1;durP2;ratioP2;P2;SDS_P1;SDS_P2;PMS_P1;PMS_P2;Temp;Humidity;BMP_temperature;BMP_pressure;BME280_temperature;BME280_humidity;BME280_pressure;Samples;Min_cycle;Max_cycle;Signal;HPM_P1;HPM_P2
2022/12/20 00:01:12;;;;;;;30.82;14.60;;;;;;;0.13;66.30;98216.39;1748464;82;27395;-70
2022/12/20 00:03:39;;;;;;;23.90;12.23;;;;;;;0.14;66.12;98200.83;1717722;82;25246;-72
2022/12/20 00:06:07;;;;;;;26.35;13.65;;;;;;;0.18;66.31;98218.69;1719019;82;25339;-70
2022/12/20 00:08:35;;;;;;;24.98;13.10;;;;;;;0.15;66.42;98199.86;1719140;82;25870;-73
2022/12/20 00:11:05;;;;;;;28.02;13.05;;;;;;;0.15;66.56;98201.19;1719595;82;25485;-71
2022/12/20 00:13:32;;;;;;;24.18;11.93;;;;;;;0.17;66.44;98204.56;1719497;82;27369;-72
2022/12/20 00:16:11;;;;;;;23.75;12.10;;;;;;;0.20;66.23;98200.34;1719328;82;25796;-71
2022/12/20 00:18:40;;;;;;;23.12;11.93;;;;;;;0.22;66.48;98201.05;1719492;82;25756;-71
2022/12/20 00:21:10;;;;;;;25.37;12.80;;;;;;;0.22;66.51;98204.20;1719415;82;25861;-71
2022/12/20 00:23:38;;;;;;;23.00;12.00;;;;;;;0.23;66.42;98206.73;1719498;82;25732;-71
2022/12/20 00:26:14;;;;;;;22.70;12.15;;;;;;;0.22;66.46;98198.89;1719384;82;28227;-70
2022/12/20 00:28:42;;;;;;;22.42;11.60;;;;;;;0.19;66.39;98182.72;1719422;82;25780;-72
2022/12/20 00:31:11;;;;;;;20.72;10.75;;;;;;;0.24;66.69;98188.47;1719522;82;25711;-71
2022/12/20 00:33:40;;;;;;;24.40;12.23;;;;;;;0.25;66.74;98186.17;1719560;82;25764;-74
2022/12/20 00:36:08;;;;;;;20.12;11.53;;;;;;;0.27;66.48;98183.39;1719517;82;25844;-73
2022/12/20 00:38:35;;;;;;;19.35;11.28;;;;;;;0.31;66.49;98175.05;1719402;82;27378;-70
2022/12/20 00:41:09;;;;;;;18.62;10.98;;;;;;;0.36;66.55;98186.11;1719367;82;25768;-75
2022/12/20 00:43:37;;;;;;;20.92;11.80;;;;;;;0.41;66.44;98182.23;1719465;82;25709;-74
2022/12/20 00:46:05;;;;;;;19.62;10.75;;;;;;;0.42;66.21;98188.75;1719303;82;26815;-74
2022/12/20 00:48:33;;;;;;;19.52;10.70;;;;;;;0.41;66.29;98180.43;1719443;82;25740;-73
2022/12/20 00:51:03;;;;;;;21.20;11.85;;;;;;;0.40;66.17;98192.02;1721141;82;27350;-74
2022/12/20 00:53:30;;;;;;;21.87;10.70;;;;;;;0.44;66.08;98187.30;1758798;81;25641;-71
2022/12/20 00:55:57;;;;;;;22.15;12.15;;;;;;;0.43;66.22;98183.80;1769725;81;25781;-70
2022/12/20 00:58:25;;;;;;;24.30;11.83;;;;;;;0.41;66.19;98190.21;1769761;81;25834;-74
2022/12/20 01:00:52;;;;;;;20.02;10.48;;;;;;;0.42;66.00;98195.39;1770513;80;25864;-71
2022/12/20 01:03:19;;;;;;;24.10;12.37;;;;;;;0.44;65.92;98180.18;1779629;80;27375;-70
2022/12/20 01:06:00;;;;;;;19.90;11.28;;;;;;;0.47;65.97;98185.23;1779316;80;25771;-74
2022/12/20 01:08:29;;;;;;;20.35;11.53;;;;;;;0.49;65.78;98184.59;1813423;77;26454;-72
2022/12/20 01:11:16;;;;;;;22.85;11.57;;;;;;;0.52;65.87;98175.53;1820859;78;25992;-71
2022/12/20 01:13:48;;;;;;;21.25;11.97;;;;;;;0.53;65.79;98183.86;1758223;80;25775;-71
2022/12/20 01:16:22;;;;;;;22.60;11.28;;;;;;;0.58;65.87;98186.98;1777261;80;27351;-72
2022/12/20 01:18:49;;;;;;;22.00;12.05;;;;;;;0.58;65.79;98180.34;1754993;81;25846;-71
2022/12/20 01:21:18;;;;;;;19.70;10.15;;;;;;;0.60;65.96;98186.37;1755067;81;25812;-75
2022/12/20 01:23:46;;;;;;;23.80;11.90;;;;;;;0.62;65.72;98183.08;1755165;81;25811;-72
2022/12/20 01:26:17;;;;;;;18.30;10.95;;;;;;;0.64;65.69;98178.48;1755212;81;25397;-70
2022/12/20 01:28:46;;;;;;;22.98;11.88;;;;;;;0.67;65.54;98180.40;1755497;81;28280;-70
2022/12/20 01:31:17;;;;;;;21.40;10.90;;;;;;;0.70;65.66;98170.00;1755071;81;25680;-71
2022/12/20 01:33:46;;;;;;;23.60;11.30;;;;;;;0.73;65.72;98179.02;1755011;81;25843;-70
2022/12/20 01:36:19;;;;;;;22.62;11.15;;;;;;;0.75;65.50;98177.07;1755134;81;25846;-73
2022/12/20 01:38:46;;;;;;;18.27;10.23;;;;;;;0.76;65.58;98174.77;1755156;81;25824;-70
2022/12/20 01:41:19;;;;;;;22.82;11.00;;;;;;;0.76;65.63;98170.78;1755201;81;27547;-71
2022/12/20 01:43:59;;;;;;;19.75;10.10;;;;;;;0.79;65.65;98167.03;1755094;81;25800;-70
2022/12/20 01:46:30;;;;;;;18.12;9.40;;;;;;;0.81;65.66;98165.93;1752615;81;25785;-70
2022/12/20 01:49:16;;;;;;;21.85;11.35;;;;;;;0.82;65.60;98160.12;1755128;81;26537;-72
2022/12/20 01:51:46;;;;;;;19.73;10.35;;;;;;;0.84;65.71;98167.00;1755370;81;25820;-73
2022/12/20 01:54:24;;;;;;;17.25;10.68;;;;;;;0.86;65.63;98169.02;1753026;81;27394;-73
2022/12/20 01:57:03;;;;;;;18.52;9.80;;;;;;;0.89;65.64;98159.45;1754760;81;43167;-74
2022/12/20 01:59:33;;;;;;;16.27;9.68;;;;;;;0.88;65.40;98157.77;1697977;83;25792;-71
2022/12/20 02:02:04;;;;;;;17.75;9.80;;;;;;;0.87;65.55;98157.41;1698238;83;25711;-71
2022/12/20 02:04:30;;;;;;;24.55;10.20;;;;;;;0.89;65.74;98155.47;1698306;83;25715;-73
2022/12/20 02:06:58;;;;;;;19.67;10.48;;;;;;;0.87;65.60;98154.76;1695951;83;27355;-71
2022/12/20 02:09:25;;;;;;;16.77;9.28;;;;;;;0.89;65.63;98151.48;1675697;85;25812;-70
2022/12/20 02:12:14;;;;;;;15.48;9.03;;;;;;;0.92;65.79;98139.27;1675708;85;25828;-70
2022/12/20 02:15:12;;;;;;;17.77;9.70;;;;;;;0.94;65.77;98147.11;1678085;84;26603;-70
2022/12/20 02:18:09;;;;;;;18.42;9.98;;;;;;;0.94;65.64;98141.30;1730555;81;25997;-70
2022/12/20 02:20:55;;;;;;;14.90;9.25;;;;;;;0.94;65.63;98134.66;1743638;81;27387;-72
2022/12/20 02:23:46;;;;;;;17.73;10.28;;;;;;;0.98;65.82;98127.23;1742966;80;25763;-71
2022/12/20 02:26:18;;;;;;;19.27;10.30;;;;;;;0.94;65.81;98126.69;1741951;81;25744;-72
2022/12/20 02:29:28;;;;;;;21.60;10.08;;;;;;;0.98;65.76;98118.77;1729923;81;25845;-71
2022/12/20 02:32:17;;;;;;;18.37;9.70;;;;;;;1.01;65.82;98115.02;1742733;81;25814;-70
2022/12/20 02:34:46;;;;;;;19.05;10.13;;;;;;;1.04;65.91;98114.27;1741607;81;27447;-71
2022/12/20 02:37:12;;;;;;;18.45;9.88;;;;;;;1.03;65.99;98113.91;1743650;81;26369;-73
2022/12/20 02:39:41;;;;;;;17.65;9.90;;;;;;;1.04;66.12;98118.25;1742766;81;25814;-73
2022/12/20 02:42:13;;;;;;;17.95;10.75;;;;;;;1.04;66.13;98112.94;1743609;80;26494;-72
2022/12/20 02:47:41;;;;;;;18.20;9.70;;;;;;;1.04;66.44;98107.62;1656840;85;27546;-76
2022/12/20 02:50:09;;;;;;;17.60;10.18;;;;;;;1.04;66.53;98111.61;1656991;85;25768;-72
2022/12/20 02:52:38;;;;;;;18.87;10.25;;;;;;;1.03;66.53;98115.23;1657367;85;25752;-72
2022/12/20 02:55:06;;;;;;;17.30;9.75;;;;;;;1.02;66.78;98109.56;1658438;83;25833;-72
2022/12/20 02:57:52;;;;;;;17.60;9.48;;;;;;;1.01;66.82;98091.92;1717544;82;25794;-75
2022/12/20 03:00:22;;;;;;;13.90;8.90;;;;;;;1.02;66.85;98088.78;1714247;82;27387;-76
2022/12/20 03:05:45;;;;;;;17.85;9.53;;;;;;;1.05;66.63;98089.85;1710747;82;25896;-74
2022/12/20 03:08:13;;;;;;;16.85;8.90;;;;;;;1.06;66.69;98086.22;1710786;82;25783;-73
2022/12/20 03:10:40;;;;;;;15.53;8.30;;;;;;;1.08;66.58;98086.93;1748613;80;25811;-71
2022/12/20 03:13:07;;;;;;;15.25;8.58;;;;;;;1.11;66.51;98059.20;1748781;80;28256;-72
2022/12/20 03:15:34;;;;;;;15.35;8.90;;;;;;;1.12;66.46;98075.52;1748670;80;25705;-74
2022/12/20 03:18:01;;;;;;;15.45;8.95;;;;;;;1.13;66.60;98088.67;1748482;80;25639;-72
2022/12/20 03:20:29;;;;;;;17.35;8.83;;;;;;;1.14;66.53;98090.84;1748693;80;26477;-75
2022/12/20 03:22:56;;;;;;;15.35;8.55;;;;;;;1.16;66.58;98095.06;1748569;80;25705;-74
2022/12/20 03:25:22;;;;;;;16.23;9.05;;;;;;;1.16;66.49;98079.59;1786072;77;27421;-71
2022/12/20 03:27:49;;;;;;;17.37;8.85;;;;;;;1.16;66.43;98075.60;1786058;77;25698;-75
2022/12/20 03:30:16;;;;;;;16.48;8.40;;;;;;;1.15;66.41;98080.08;1805750;77;25671;-72
2022/12/20 03:32:43;;;;;;;15.23;8.23;;;;;;;1.17;66.53;98083.94;1811488;77;25747;-72
2022/12/20 03:35:09;;;;;;;16.95;8.63;;;;;;;1.16;66.62;98088.89;1780611;77;25755;-72
2022/12/20 03:37:36;;;;;;;16.25;7.65;;;;;;;1.16;66.59;98095.55;1780483;77;27386;-72
2022/12/20 03:40:04;;;;;;;16.85;9.03;;;;;;;1.15;66.26;98088.05;1811519;77;25597;-72
2022/12/20 03:42:31;;;;;;;14.23;7.85;;;;;;;1.14;66.43;98087.70;1805700;77;25751;-72
2022/12/20 03:44:58;;;;;;;13.83;8.33;;;;;;;1.10;66.42;98070.33;1785649;77;25671;-72
2022/12/20 03:47:25;;;;;;;14.13;7.53;;;;;;;1.08;66.51;98089.59;1780707;77;25450;-72
2022/12/20 03:49:51;;;;;;;15.80;8.75;;;;;;;1.11;66.42;98091.11;1780610;77;27390;-73
2022/12/20 03:52:18;;;;;;;14.78;8.78;;;;;;;1.10;66.59;98087.61;1780159;77;25668;-72
2022/12/20 03:54:45;;;;;;;16.25;8.60;;;;;;;1.11;66.58;98097.76;1811677;77;25711;-71
2022/12/20 03:57:11;;;;;;;15.23;8.48;;;;;;;1.10;66.53;98084.95;1794474;77;26184;-71
2022/12/20 03:59:38;;;;;;;16.07;9.20;;;;;;;1.07;66.46;98080.77;1797120;77;25655;-74
2022/12/20 04:02:05;;;;;;;17.92;8.98;;;;;;;1.06;66.56;98081.74;1811958;77;27374;-74
2022/12/20 04:04:32;;;;;;;17.55;9.85;;;;;;;1.06;66.52;98081.74;1787917;77;25720;-71
2022/12/20 04:06:59;;;;;;;18.02;9.80;;;;;;;1.09;66.52;98089.42;1809096;77;25752;-74
2022/12/20 04:09:25;;;;;;;18.73;10.82;;;;;;;1.08;66.52;98086.44;1824097;77;25687;-74
2022/12/20 04:11:52;;;;;;;19.20;10.58;;;;;;;1.09;66.48;98093.90;1824473;77;25648;-73
2022/12/20 04:14:19;;;;;;;20.37;11.03;;;;;;;1.09;66.14;98074.80;1786384;77;27348;-71
2022/12/20 04:16:45;;;;;;;17.73;9.73;;;;;;;1.10;66.53;98088.94;1780582;77;25650;-72
2022/12/20 04:19:12;;;;;;;18.80;9.83;;;;;;;1.10;66.23;98086.28;1780514;77;25666;-71
2022/12/20 04:21:39;;;;;;;17.62;10.18;;;;;;;1.14;66.30;98078.88;1780587;77;26484;-75
2022/12/20 04:24:05;;;;;;;15.68;9.00;;;;;;;1.16;66.36;98075.60;1780613;77;25409;-71
2022/12/20 04:26:33;;;;;;;18.32;8.68;;;;;;;1.19;66.27;98066.03;1801875;77;27415;-72
2022/12/20 04:28:59;;;;;;;14.93;8.98;;;;;;;1.20;65.91;98075.69;1780522;77;25730;-73
2022/12/20 04:31:26;;;;;;;14.65;9.03;;;;;;;1.23;65.81;98072.73;1780612;77;25662;-71
2022/12/20 04:33:52;;;;;;;15.18;8.85;;;;;;;1.27;65.88;98068.34;1803247;77;25683;-73
2022/12/20 04:36:20;;;;;;;18.35;10.15;;;;;;;1.27;65.75;98067.50;1788181;77;25837;-71
2022/12/20 04:38:47;;;;;;;12.90;7.55;;;;;;;1.28;65.58;98070.03;1780560;77;27365;-71
2022/12/20 04:41:21;;;;;;;17.15;8.68;;;;;;;1.27;65.35;98076.81;1780577;77;25413;-75
2022/12/20 04:43:42;;;;;;;17.00;8.48;;;;;;;1.27;65.39;98061.70;1776102;77;26220;-71
2022/12/20 04:46:08;;;;;;;16.07;8.73;;;;;;;1.30;65.40;98060.59;1780772;77;25731;-71
2022/12/20 04:48:35;;;;;;;15.93;8.63;;;;;;;1.30;65.36;98065.42;1811360;77;25786;-72
2022/12/20 04:51:02;;;;;;;15.40;9.08;;;;;;;1.29;65.33;98065.55;1780611;77;27389;-71
2022/12/20 04:53:47;;;;;;;14.98;7.92;;;;;;;1.28;65.28;98057.22;1780526;77;25796;-74
2022/12/20 04:56:17;;;;;;;15.00;8.85;;;;;;;1.27;65.13;98062.19;1787713;80;25678;-74
2022/12/20 04:58:44;;;;;;;15.40;8.98;;;;;;;1.26;65.14;98061.83;1781080;77;25761;-73
2022/12/20 05:01:11;;;;;;;14.80;8.85;;;;;;;1.24;65.21;98058.46;1780649;77;25820;-71
2022/12/20 05:03:38;;;;;;;15.50;8.78;;;;;;;1.24;65.04;98047.83;1788271;77;28067;-71
2022/12/20 05:06:06;;;;;;;14.33;8.90;;;;;;;1.22;65.09;98049.77;1811482;77;26109;-74
2022/12/20 05:08:33;;;;;;;15.28;8.70;;;;;;;1.21;64.99;98045.47;1780336;77;25731;-71
2022/12/20 05:11:00;;;;;;;17.82;9.55;;;;;;;1.21;64.97;98046.80;1780265;77;25728;-74
2022/12/20 05:13:27;;;;;;;14.95;8.40;;;;;;;1.20;65.11;98043.78;1780473;77;25896;-74
2022/12/20 05:15:55;;;;;;;16.67;9.33;;;;;;;1.19;65.04;98043.42;1780191;77;28256;-70
2022/12/20 05:18:23;;;;;;;13.50;9.23;;;;;;;1.18;65.05;98039.08;1780431;77;25730;-70
2022/12/20 05:26:16;;;;;;;15.53;8.38;;;;;;;1.14;64.96;98027.03;1780551;77;25744;-72
2022/12/20 05:26:18;;;;;;;14.30;8.35;;;;;;;1.10;64.75;98030.44;1784779;77;25630;-74
2022/12/20 05:28:45;;;;;;;14.23;8.38;;;;;;;1.07;64.90;98029.41;1802192;77;27371;-71
2022/12/20 05:31:12;;;;;;;21.07;9.40;;;;;;;1.05;64.87;98022.89;1780448;77;25635;-74
2022/12/20 05:33:38;;;;;;;16.25;8.98;;;;;;;1.08;64.97;98017.31;1780503;77;25224;-72
2022/12/20 05:36:05;;;;;;;17.17;8.83;;;;;;;1.09;64.91;98029.59;1780541;77;25464;-70
2022/12/20 05:38:32;;;;;;;17.62;9.80;;;;;;;1.09;65.04;98046.88;1780341;77;26516;-71
2022/12/20 05:40:59;;;;;;;16.35;9.30;;;;;;;1.11;64.73;98038.77;1808895;77;27370;-71
2022/12/20 05:43:25;;;;;;;16.80;8.65;;;;;;;1.13;64.65;98025.34;1782399;77;25675;-73
2022/12/20 05:45:53;;;;;;;14.80;8.85;;;;;;;1.14;64.83;98032.34;1780578;77;25723;-74
2022/12/20 05:48:20;;;;;;;16.27;9.43;;;;;;;1.13;65.10;98037.31;1780477;77;25720;-71
2022/12/20 05:50:47;;;;;;;20.00;10.05;;;;;;;1.12;65.03;98039.61;1780461;77;25723;-73
2022/12/20 05:53:15;;;;;;;21.10;10.82;;;;;;;1.09;65.12;98041.56;1815098;77;28131;-74
2022/12/20 05:55:46;;;;;;;16.37;9.78;;;;;;;1.08;65.10;98039.91;1807037;77;25606;-71
2022/12/20 05:58:13;;;;;;;17.60;9.45;;;;;;;1.04;65.11;98045.14;1785103;79;25668;-72
2022/12/20 06:00:42;;;;;;;17.05;10.50;;;;;;;0.98;65.23;98040.35;1799415;79;26481;-71
2022/12/20 06:03:10;;;;;;;17.10;10.45;;;;;;;0.96;65.34;98046.80;1784522;79;26012;-71
2022/12/20 06:05:38;;;;;;;16.85;9.55;;;;;;;0.96;65.34;98045.48;1792757;79;27423;-74
2022/12/20 06:08:06;;;;;;;17.35;10.05;;;;;;;0.97;65.42;98046.64;1799618;79;25744;-71
2022/12/20 06:10:34;;;;;;;17.55;9.23;;;;;;;1.01;65.36;98044.56;1804692;79;25966;-71
2022/12/20 06:13:03;;;;;;;16.97;9.60;;;;;;;1.01;65.18;98038.76;1805237;79;26386;-71
2022/12/20 06:15:30;;;;;;;19.70;10.78;;;;;;;1.02;65.18;98035.13;1805146;79;26860;-72
2022/12/20 06:17:57;;;;;;;21.45;10.63;;;;;;;1.02;65.26;98043.10;1805037;79;28229;-71
2022/12/20 06:20:24;;;;;;;22.45;11.20;;;;;;;1.01;65.21;98045.41;1804760;79;25688;-71
2022/12/20 06:22:51;;;;;;;19.00;10.72;;;;;;;1.00;65.13;98045.05;1805199;79;25738;-70
2022/12/20 06:25:18;;;;;;;19.52;10.82;;;;;;;1.00;65.25;98050.37;1805180;79;25764;-70
2022/12/20 06:27:45;;;;;;;25.27;9.78;;;;;;;1.00;65.19;98046.38;1805254;79;25474;-71
2022/12/20 06:30:12;;;;;;;20.05;10.75;;;;;;;1.00;65.14;98045.05;1805272;79;27396;-71
2022/12/20 06:32:39;;;;;;;24.82;13.15;;;;;;;1.01;65.10;98045.89;1805010;79;25821;-72
2022/12/20 06:35:07;;;;;;;22.30;12.58;;;;;;;1.00;65.16;98049.03;1804968;79;25252;-70
2022/12/20 06:37:33;;;;;;;22.32;11.50;;;;;;;1.01;65.08;98034.77;1805362;79;26632;-70
2022/12/20 06:40:01;;;;;;;23.10;12.35;;;;;;;0.97;64.99;98041.33;1805205;79;25791;-75
2022/12/20 06:42:27;;;;;;;18.70;11.08;;;;;;;0.97;65.10;98048.45;1805259;79;27371;-73
2022/12/20 06:44:54;;;;;;;20.10;10.63;;;;;;;0.94;65.15;98041.63;1805183;79;25699;-70
2022/12/20 06:47:21;;;;;;;20.23;12.03;;;;;;;0.91;64.89;98048.53;1805234;79;25821;-71
2022/12/20 06:49:47;;;;;;;24.12;12.10;;;;;;;0.90;65.02;98048.17;1805354;79;26480;-71
2022/12/20 06:52:14;;;;;;;21.30;11.70;;;;;;;0.89;65.06;98049.15;1805361;79;25663;-71
2022/12/20 06:54:41;;;;;;;22.02;11.73;;;;;;;0.89;65.02;98051.80;1813324;78;28116;-71
2022/12/20 06:57:08;;;;;;;23.07;12.88;;;;;;;0.89;65.11;98054.46;1796231;77;25870;-75
2022/12/20 06:59:34;;;;;;;23.75;13.50;;;;;;;0.92;65.19;98055.53;1801499;77;25634;-72
2022/12/20 07:02:01;;;;;;;31.27;17.95;;;;;;;0.94;65.23;98052.25;1792230;77;26468;-70
2022/12/20 07:04:28;;;;;;;36.68;24.07;;;;;;;0.95;65.32;98055.27;1805314;77;25785;-75
2022/12/20 07:06:56;;;;;;;23.95;12.93;;;;;;;0.98;65.38;98058.12;1800244;77;27407;-71
2022/12/20 07:09:22;;;;;;;24.12;14.30;;;;;;;0.95;65.31;98055.27;1817210;77;25746;-73
2022/12/20 07:11:49;;;;;;;22.52;12.43;;;;;;;1.02;65.27;98048.42;1795415;77;25231;-73
2022/12/20 07:14:16;;;;;;;25.12;13.65;;;;;;;1.05;65.28;98044.16;1795307;77;26453;-70
2022/12/20 07:16:42;;;;;;;26.33;14.95;;;;;;;1.08;65.39;98043.90;1810168;77;25667;-71
2022/12/20 07:19:14;;;;;;;23.83;14.40;;;;;;;1.04;65.33;98037.16;1803168;77;27382;-70
2022/12/20 07:21:42;;;;;;;32.67;16.77;;;;;;;1.03;65.39;98048.77;1808336;77;25660;-71
2022/12/20 07:24:09;;;;;;;20.00;11.80;;;;;;;1.07;65.31;98050.68;1808825;77;25697;-75
2022/12/20 07:26:36;;;;;;;39.33;19.65;;;;;;;1.11;65.23;98049.89;1827980;77;26347;-71
2022/12/20 07:29:02;;;;;;;49.18;23.50;;;;;;;1.13;65.21;98043.95;1827508;77;25237;-72
2022/12/20 07:31:29;;;;;;;25.12;12.50;;;;;;;1.15;65.25;98042.01;1828078;77;27348;-71
2022/12/20 07:33:56;;;;;;;28.57;15.20;;;;;;;1.16;65.07;98035.72;1805983;77;25926;-71
2022/12/20 07:36:23;;;;;;;21.48;11.38;;;;;;;1.18;64.99;98033.27;1803825;77;25742;-71
2022/12/20 07:38:49;;;;;;;22.77;12.10;;;;;;;1.22;65.04;98041.31;1809416;77;25745;-71
2022/12/20 07:43:46;;;;;;;35.80;19.45;;;;;;;1.30;65.02;98031.33;1734584;80;28224;-71
2022/12/20 07:46:14;;;;;;;42.88;24.02;;;;;;;1.33;64.84;98028.38;1744250;80;25809;-70
2022/12/20 07:48:41;;;;;;;30.00;15.13;;;;;;;1.34;64.80;98034.05;1737346;80;25786;-72
2022/12/20 07:51:25;;;;;;;25.48;14.20;;;;;;;1.37;64.70;98037.28;1718908;80;25734;-71
2022/12/20 07:54:00;;;;;;;24.45;13.72;;;;;;;1.43;64.70;98032.75;1683413;83;25822;-71
2022/12/20 07:56:28;;;;;;;27.70;14.55;;;;;;;1.47;64.69;98033.29;1694996;83;27420;-73
2022/12/20 07:58:57;;;;;;;24.00;12.75;;;;;;;1.49;64.55;98016.70;1699781;83;26582;-75
2022/12/20 08:01:27;;;;;;;25.35;14.45;;;;;;;1.50;64.54;98026.36;1699780;83;25787;-71
2022/12/20 08:03:59;;;;;;;24.45;13.25;;;;;;;1.51;64.43;98024.06;1678908;83;25744;-72
2022/12/20 08:06:25;;;;;;;24.23;13.58;;;;;;;1.53;64.43;98023.44;1694441;83;25463;-71
2022/12/20 08:08:56;;;;;;;22.27;12.80;;;;;;;1.56;64.46;98019.17;1700207;83;27542;-75
2022/12/20 08:11:24;;;;;;;19.57;11.75;;;;;;;1.61;64.38;98018.24;1701968;84;26212;-70
2022/12/20 08:13:51;;;;;;;25.30;13.18;;;;;;;1.64;64.35;98015.80;1702431;84;25918;-73
2022/12/20 08:16:18;;;;;;;25.77;14.25;;;;;;;1.64;64.06;98020.63;1702264;84;26456;-72
2022/12/20 08:18:45;;;;;;;25.15;13.72;;;;;;;1.64;64.06;98021.13;1702079;84;25486;-70
2022/12/20 08:21:13;;;;;;;30.37;15.53;;;;;;;1.67;64.13;98019.03;1702355;84;28177;-74
2022/12/20 08:23:40;;;;;;;28.15;14.73;;;;;;;1.72;64.03;98020.75;1702291;84;25898;-72
2022/12/20 08:26:07;;;;;;;25.68;14.18;;;;;;;1.76;64.09;98016.84;1702321;84;25777;-73
2022/12/20 08:28:34;;;;;;;22.60;12.45;;;;;;;1.83;63.98;98016.26;1702349;84;25681;-75
2022/12/20 08:31:07;;;;;;;24.05;12.82;;;;;;;1.88;63.88;98012.70;1702136;84;25926;-71
2022/12/20 08:33:35;;;;;;;21.37;12.90;;;;;;;1.90;63.77;98012.06;1702317;84;27386;-72
2022/12/20 08:36:06;;;;;;;23.32;13.10;;;;;;;1.94;63.69;98012.11;1702220;84;25778;-71
2022/12/20 08:38:34;;;;;;;24.43;13.28;;;;;;;1.98;63.49;98012.19;1702439;84;25838;-71
2022/12/20 08:41:11;;;;;;;28.10;13.48;;;;;;;1.98;63.48;98014.84;1713090;81;25810;-71
2022/12/20 08:43:39;;;;;;;24.57;14.33;;;;;;;2.00;63.23;98016.88;1700698;81;25866;-71
2022/12/20 08:46:07;;;;;;;28.00;14.40;;;;;;;2.02;63.44;98021.58;1669548;83;28374;-73
2022/12/20 08:48:35;;;;;;;25.25;14.38;;;;;;;2.05;63.50;98013.31;1640889;84;26505;-72
2022/12/20 08:51:06;;;;;;;25.27;13.80;;;;;;;2.08;63.38;98016.50;1707564;82;25988;-71
2022/12/20 08:53:34;;;;;;;26.40;14.05;;;;;;;2.12;63.31;98017.06;1721551;83;25884;-72
2022/12/20 08:56:12;;;;;;;26.77;14.05;;;;;;;2.22;63.23;98006.38;1721599;82;25824;-72
2022/12/20 08:58:41;;;;;;;21.23;13.28;;;;;;;2.32;63.35;97993.86;1726514;82;28204;-71
2022/12/20 09:01:12;;;;;;;27.35;12.45;;;;;;;2.38;63.12;97999.47;1726273;82;25734;-73
2022/12/20 09:03:40;;;;;;;21.65;11.95;;;;;;;2.45;62.84;97989.89;1726574;82;25774;-71
2022/12/20 09:06:11;;;;;;;21.73;11.95;;;;;;;2.53;62.98;97980.69;1726574;82;26383;-73
2022/12/20 09:08:39;;;;;;;23.05;13.05;;;;;;;2.60;62.65;97986.75;1710534;83;25686;-76
2022/12/20 09:11:13;;;;;;;22.32;12.68;;;;;;;2.67;62.62;97983.34;1726164;81;28211;-72
2022/12/20 09:13:43;;;;;;;22.52;13.30;;;;;;;2.75;62.55;97986.61;1726974;81;25891;-73
2022/12/20 09:16:12;;;;;;;22.02;11.85;;;;;;;2.78;61.71;97993.80;1726527;81;25793;-72
2022/12/20 09:18:39;;;;;;;22.65;12.93;;;;;;;2.80;62.07;97986.98;1726911;81;25856;-74
2022/12/20 09:21:07;;;;;;;21.10;12.20;;;;;;;2.86;62.09;97985.08;1726848;81;25882;-73
2022/12/20 09:23:36;;;;;;;23.27;13.70;;;;;;;2.96;61.96;97973.85;1726927;81;27458;-73
2022/12/20 09:26:06;;;;;;;26.07;13.10;;;;;;;3.07;61.93;97977.64;1726834;81;25847;-76
2022/12/20 09:28:33;;;;;;;22.82;12.93;;;;;;;3.19;61.91;97971.10;1726795;81;25806;-73
2022/12/20 09:31:06;;;;;;;22.48;13.25;;;;;;;3.23;61.68;97971.16;1726928;81;25677;-73
2022/12/20 09:33:35;;;;;;;22.55;12.53;;;;;;;3.26;61.40;97965.98;1726968;81;25750;-73
2022/12/20 09:36:04;;;;;;;20.40;12.15;;;;;;;3.25;61.58;97977.18;1710808;81;27407;-73
2022/12/20 09:38:31;;;;;;;27.25;13.30;;;;;;;3.25;61.45;97967.00;1692737;83;25736;-73
2022/12/20 09:41:04;;;;;;;24.92;13.43;;;;;;;3.25;61.48;97966.51;1733427;81;25761;-73
2022/12/20 09:43:35;;;;;;;24.95;13.85;;;;;;;3.23;61.11;97959.14;1751546;81;25761;-73
2022/12/20 09:46:03;;;;;;;25.50;14.78;;;;;;;3.20;61.19;97956.77;1751676;81;25937;-73
2022/12/20 09:48:36;;;;;;;26.30;14.05;;;;;;;3.16;61.12;97962.06;1751654;81;27391;-75
2022/12/20 09:51:41;;;;;;;24.37;13.62;;;;;;;3.18;61.26;97944.08;1697665;83;25857;-73
2022/12/20 09:54:31;;;;;;;24.05;14.25;;;;;;;3.17;61.33;97951.73;1697838;83;25753;-73
2022/12/20 09:57:05;;;;;;;22.27;12.85;;;;;;;3.17;61.16;97949.56;1697815;83;26559;-72
2022/12/20 09:59:34;;;;;;;26.93;15.72;;;;;;;3.17;61.35;97947.73;1695550;83;25805;-73
2022/12/20 10:02:01;;;;;;;28.62;15.40;;;;;;;3.18;61.35;97941.41;1697888;83;27466;-74
2022/12/20 10:04:31;;;;;;;36.38;17.60;;;;;;;3.19;61.42;97949.76;1700868;81;25795;-73
2022/12/20 10:07:35;;;;;;;32.90;16.62;;;;;;;3.22;61.21;97950.80;1732987;81;25718;-76
2022/12/20 10:10:39;;;;;;;35.63;19.73;;;;;;;3.21;61.29;97951.78;1736907;81;25744;-73
2022/12/20 10:13:21;;;;;;;26.40;14.78;;;;;;;3.18;61.23;97950.74;1744594;81;25738;-73
2022/12/20 10:16:06;;;;;;;29.87;16.30;;;;;;;3.17;61.23;97946.39;1738701;81;28172;-76
2022/12/20 10:18:59;;;;;;;27.85;15.03;;;;;;;3.14;61.29;97956.55;1633495;86;25570;-73
2022/12/20 10:21:37;;;;;;;29.00;14.58;;;;;;;3.15;61.41;97947.53;1631845;86;26783;-73
2022/12/20 10:24:20;;;;;;;28.55;15.78;;;;;;;3.12;61.19;97949.19;1632939;86;25761;-76
2022/12/20 10:26:50;;;;;;;28.98;15.70;;;;;;;3.09;61.08;97939.66;1629733;86;25509;-72
2022/12/20 10:29:19;;;;;;;28.00;15.32;;;;;;;3.07;61.18;97936.30;1631634;86;27408;-73
2022/12/20 10:31:54;;;;;;;27.55;14.83;;;;;;;3.04;61.06;97935.26;1634402;86;25979;-72
2022/12/20 10:34:20;;;;;;;28.35;16.05;;;;;;;3.07;60.95;97924.30;1632011;86;25875;-73
2022/12/20 10:36:52;;;;;;;27.55;15.32;;;;;;;3.09;60.67;97922.32;1634078;86;25906;-73
2022/12/20 10:39:24;;;;;;;30.17;16.80;;;;;;;3.15;60.82;97915.52;1625849;86;25783;-73
2022/12/20 10:41:51;;;;;;;31.82;16.52;;;;;;;3.19;60.80;97905.73;1632191;86;27410;-73
2022/12/20 10:44:27;;;;;;;29.75;16.02;;;;;;;3.26;60.80;97897.95;1650328;86;25810;-73
2022/12/20 10:47:00;;;;;;;26.57;14.95;;;;;;;3.30;60.53;97895.81;1651167;85;26691;-73
2022/12/20 10:49:36;;;;;;;27.37;14.90;;;;;;;3.31;60.53;97889.00;1672608;84;26438;-73
2022/12/20 10:52:12;;;;;;;26.48;15.05;;;;;;;3.31;60.52;97878.81;1668233;85;25522;-75
2022/12/20 10:54:44;;;;;;;27.60;14.50;;;;;;;3.28;60.14;97877.78;1654494;85;27461;-77
2022/12/20 10:57:20;;;;;;;;;;;;;;;3.28;60.24;97876.45;1723929;81;25769;-73
2022/12/20 11:00:04;;;;;;;24.65;13.40;;;;;;;3.26;59.81;97878.77;1663663;86;25310;-76
2022/12/20 11:02:35;;;;;;;24.95;13.70;;;;;;;3.23;60.01;97865.77;1644103;86;25789;-74
2022/12/20 11:05:16;;;;;;;25.03;13.53;;;;;;;3.23;60.05;97860.43;1652352;86;25697;-74
2022/12/20 11:07:59;;;;;;;20.65;13.05;;;;;;;3.25;60.09;97850.94;1649286;86;27392;-73
2022/12/20 11:10:29;;;;;;;22.82;13.10;;;;;;;3.26;60.18;97838.75;1622079;87;25824;-73
2022/12/20 11:12:59;;;;;;;22.40;12.58;;;;;;;3.29;60.07;97830.10;1648818;87;25313;-73
2022/12/20 11:15:30;;;;;;;22.93;12.45;;;;;;;3.33;60.10;97830.14;1621173;88;25863;-73
2022/12/20 11:18:11;;;;;;;24.72;12.73;;;;;;;3.40;59.87;97824.52;1612818;88;25873;-73
2022/12/20 11:21:03;;;;;;;35.33;16.57;;;;;;;3.51;59.57;97816.24;1629383;88;27371;-74
2022/12/20 11:23:50;;;;;;;51.60;22.62;;;;;;;3.66;59.71;97816.01;1607448;89;26027;-73
2022/12/20 11:26:28;;;;;;;62.03;25.70;;;;;;;3.77;59.54;97828.25;1580091;90;25335;-74
2022/12/20 11:29:35;;;;;;;53.23;23.92;;;;;;;3.78;59.29;97810.73;1553517;91;25841;-74
2022/12/20 11:32:16;;;;;;;32.83;16.73;;;;;;;3.77;59.30;97803.72;1578808;90;26032;-74
2022/12/20 11:35:25;;;;;;;40.85;19.92;;;;;;;3.73;58.93;97818.41;1559839;91;27399;-74
2022/12/20 11:38:16;;;;;;;30.23;15.55;;;;;;;3.72;58.95;97833.24;1577213;90;25754;-73
2022/12/20 11:40:57;;;;;;;34.88;17.50;;;;;;;3.67;58.77;97801.67;1562956;91;25803;-74
2022/12/20 11:43:45;;;;;;;34.63;17.02;;;;;;;3.59;58.77;97817.65;1557748;91;26432;-73
2022/12/20 11:47:01;;;;;;;31.05;16.23;;;;;;;3.59;58.88;97828.33;1557040;91;25930;-77
2022/12/20 11:49:42;;;;;;;33.02;16.12;;;;;;;3.63;58.96;97831.00;1543587;92;27518;-72
2022/12/20 11:52:36;;;;;;;33.30;16.17;;;;;;;3.69;58.74;97835.73;1567884;90;25741;-74
2022/12/20 11:55:28;;;;;;;34.48;17.12;;;;;;;3.72;58.95;97802.54;1533025;93;25955;-77
2022/12/20 11:58:15;;;;;;;38.73;17.42;;;;;;;3.71;58.61;97813.72;1557598;91;26345;-73